sensor_id;sensor_type;location;lat;lon;timestamp;P1;durP1;ratioP1;P2;durP2;ratioP2
70369;SDS011;57790;51.356;-2.906;2022-12-07T00:01:45;13.73;;;5.30;;
70369;SDS011;57790;51.356;-2.906;2022-12-07T00:04:48;12.45;;;5.53;;
70369;SDS011;57790;51.356;-2.906;2022-12-07T00:07:49;12.85;;;4.90;;
70369;SDS011;57790;51.356;-2.906;2022-12-07T00:10:49;13.20;;;5.17;;
70369;SDS011;57790;51.356;-2.906;2022-12-07T00:14:10;12.47;;;4.90;;
70369;SDS011;57790;51.356;-2.906;2022-12-07T00:17:12;11.80;;;5.03;;
70369;SDS011;57790;51.356;-2.906;2022-12-07T00:20:13;12.40;;;4.80;;
70369;SDS011;57790;51.356;-2.906;2022-12-07T00:23:13;11.43;;;4.88;;
70369;SDS011;57790;51.356;-2.906;2022-12-07T00:29:16;11.20;;;4.47;;
70369;SDS011;57790;51.356;-2.906;2022-12-07T00:32:19;11.37;;;4.43;;
70369;SDS011;57790;51.356;-2.906;2022-12-07T00:35:19;11.77;;;4.40;;
70369;SDS011;57790;51.356;-2.906;2022-12-07T00:38:19;12.27;;;4.25;;
70369;SDS011;57790;51.356;-2.906;2022-12-07T00:41:20;11.53;;;4.30;;
70369;SDS011;57790;51.356;-2.906;2022-12-07T00:44:22;12.30;;;4.60;;
70369;SDS011;57790;51.356;-2.906;2022-12-07T00:47:23;10.77;;;4.78;;
70369;SDS011;57790;51.356;-2.906;2022-12-07T00:50:23;11.50;;;4.50;;
70369;SDS011;57790;51.356;-2.906;2022-12-07T00:53:24;9.93;;;4.57;;
70369;SDS011;57790;51.356;-2.906;2022-12-07T00:56:25;10.53;;;4.80;;
70369;SDS011;57790;51.356;-2.906;2022-12-07T00:59:27;11.30;;;4.70;;
70369;SDS011;57790;51.356;-2.906;2022-12-07T01:02:27;12.00;;;4.57;;
70369;SDS011;57790;51.356;-2.906;2022-12-07T01:05:28;10.55;;;4.25;;
70369;SDS011;57790;51.356;-2.906;2022-12-07T01:08:28;11.37;;;4.40;;
70369;SDS011;57790;51.356;-2.906;2022-12-07T01:11:29;11.03;;;4.57;;
70369;SDS011;57790;51.356;-2.906;2022-12-07T01:14:30;10.98;;;4.15;;
70369;SDS011;57790;51.356;-2.906;2022-12-07T01:17:31;11.83;;;4.70;;
70369;SDS011;57790;51.356;-2.906;2022-12-07T01:20:31;13.50;;;5.47;;
70369;SDS011;57790;51.356;-2.906;2022-12-07T01:23:32;14.17;;;5.80;;
70369;SDS011;57790;51.356;-2.906;2022-12-07T01:26:34;15.93;;;5.90;;
70369;SDS011;57790;51.356;-2.906;2022-12-07T01:29:34;13.03;;;5.83;;
70369;SDS011;57790;51.356;-2.906;2022-12-07T01:32:35;12.60;;;5.17;;
70369;SDS011;57790;51.356;-2.906;2022-12-07T01:35:35;11.57;;;5.27;;
70369;SDS011;57790;51.356;-2.906;2022-12-07T01:38:35;12.53;;;5.27;;
70369;SDS011;57790;51.356;-2.906;2022-12-07T01:41:37;12.93;;;5.03;;
70369;SDS011;57790;51.356;-2.906;2022-12-07T01:48:18;11.85;;;5.30;;
70369;SDS011;57790;51.356;-2.906;2022-12-07T01:51:23;12.40;;;5.10;;
70369;SDS011;57790;51.356;-2.906;2022-12-07T01:54:23;12.93;;;5.20;;
70369;SDS011;57790;51.356;-2.906;2022-12-07T01:57:25;12.23;;;5.00;;
70369;SDS011;57790;51.356;-2.906;2022-12-07T02:00:26;12.40;;;5.10;;
70369;SDS011;57790;51.356;-2.906;2022-12-07T02:03:34;14.20;;;5.23;;
70369;SDS011;57790;51.356;-2.906;2022-12-07T02:06:39;12.95;;;4.50;;
70369;SDS011;57790;51.356;-2.906;2022-12-07T02:09:41;12.40;;;5.30;;
70369;SDS011;57790;51.356;-2.906;2022-12-07T02:12:42;13.93;;;5.63;;
70369;SDS011;57790;51.356;-2.906;2022-12-07T02:18:58;15.35;;;5.40;;
70369;SDS011;57790;51.356;-2.906;2022-12-07T02:32:16;14.75;;;5.90;;
70369;SDS011;57790;51.356;-2.906;2022-12-07T02:41:52;13.48;;;6.13;;
70369;SDS011;57790;51.356;-2.906;2022-12-07T02:44:57;13.67;;;5.30;;
70369;SDS011;57790;51.356;-2.906;2022-12-07T02:48:00;14.53;;;5.83;;
70369;SDS011;57790;51.356;-2.906;2022-12-07T02:51:01;12.10;;;5.40;;
70369;SDS011;57790;51.356;-2.906;2022-12-07T02:54:02;12.93;;;5.50;;
70369;SDS011;57790;51.356;-2.906;2022-12-07T03:00:38;15.10;;;5.40;;
70369;SDS011;57790;51.356;-2.906;2022-12-07T03:03:57;15.25;;;5.53;;
70369;SDS011;57790;51.356;-2.906;2022-12-07T03:10:27;12.88;;;5.45;;
70369;SDS011;57790;51.356;-2.906;2022-12-07T03:13:38;13.88;;;5.35;;
70369;SDS011;57790;51.356;-2.906;2022-12-07T03:16:47;16.40;;;6.00;;
70369;SDS011;57790;51.356;-2.906;2022-12-07T03:19:57;14.45;;;5.53;;
70369;SDS011;57790;51.356;-2.906;2022-12-07T03:23:00;15.10;;;6.35;;
70369;SDS011;57790;51.356;-2.906;2022-12-07T03:26:01;13.90;;;5.90;;
70369;SDS011;57790;51.356;-2.906;2022-12-07T03:29:07;14.15;;;5.85;;
70369;SDS011;57790;51.356;-2.906;2022-12-07T03:32:18;13.70;;;5.67;;
70369;SDS011;57790;51.356;-2.906;2022-12-07T03:38:33;14.65;;;5.60;;
70369;SDS011;57790;51.356;-2.906;2022-12-07T03:41:45;12.65;;;5.13;;
70369;SDS011;57790;51.356;-2.906;2022-12-07T03:44:45;13.73;;;5.80;;
70369;SDS011;57790;51.356;-2.906;2022-12-07T03:47:48;14.00;;;5.68;;
70369;SDS011;57790;51.356;-2.906;2022-12-07T03:51:15;16.20;;;6.43;;
70369;SDS011;57790;51.356;-2.906;2022-12-07T03:54:26;14.60;;;5.22;;
70369;SDS011;57790;51.356;-2.906;2022-12-07T03:57:33;12.13;;;5.77;;
70369;SDS011;57790;51.356;-2.906;2022-12-07T04:00:35;12.30;;;5.10;;
70369;SDS011;57790;51.356;-2.906;2022-12-07T04:03:37;13.77;;;5.97;;
70369;SDS011;57790;51.356;-2.906;2022-12-07T04:06:37;16.07;;;5.80;;
70369;SDS011;57790;51.356;-2.906;2022-12-07T04:09:37;13.80;;;5.30;;
70369;SDS011;57790;51.356;-2.906;2022-12-07T04:12:38;13.85;;;5.32;;
70369;SDS011;57790;51.356;-2.906;2022-12-07T04:15:38;12.97;;;5.73;;
70369;SDS011;57790;51.356;-2.906;2022-12-07T04:18:39;12.40;;;5.50;;
70369;SDS011;57790;51.356;-2.906;2022-12-07T04:21:39;11.10;;;4.97;;
70369;SDS011;57790;51.356;-2.906;2022-12-07T04:24:39;12.77;;;4.87;;
70369;SDS011;57790;51.356;-2.906;2022-12-07T04:27:40;14.60;;;5.33;;
70369;SDS011;57790;51.356;-2.906;2022-12-07T04:30:40;11.80;;;5.47;;
70369;SDS011;57790;51.356;-2.906;2022-12-07T04:33:40;12.18;;;4.95;;
70369;SDS011;57790;51.356;-2.906;2022-12-07T04:36:41;12.27;;;5.57;;
70369;SDS011;57790;51.356;-2.906;2022-12-07T04:39:42;14.93;;;5.67;;
70369;SDS011;57790;51.356;-2.906;2022-12-07T04:42:44;12.15;;;5.30;;
70369;SDS011;57790;51.356;-2.906;2022-12-07T04:45:45;14.43;;;5.27;;
70369;SDS011;57790;51.356;-2.906;2022-12-07T04:48:47;13.25;;;5.22;;
70369;SDS011;57790;51.356;-2.906;2022-12-07T04:51:47;13.30;;;5.43;;
70369;SDS011;57790;51.356;-2.906;2022-12-07T04:54:48;13.90;;;5.77;;
70369;SDS011;57790;51.356;-2.906;2022-12-07T04:57:48;13.20;;;5.37;;
70369;SDS011;57790;51.356;-2.906;2022-12-07T05:00:48;14.37;;;5.80;;
70369;SDS011;57790;51.356;-2.906;2022-12-07T05:03:49;14.33;;;5.83;;
70369;SDS011;57790;51.356;-2.906;2022-12-07T05:06:49;14.87;;;5.77;;
70369;SDS011;57790;51.356;-2.906;2022-12-07T05:09:50;12.40;;;5.80;;
70369;SDS011;57790;51.356;-2.906;2022-12-07T05:12:50;15.70;;;6.33;;
70369;SDS011;57790;51.356;-2.906;2022-12-07T05:15:51;11.80;;;5.60;;
70369;SDS011;57790;51.356;-2.906;2022-12-07T05:18:51;16.13;;;5.77;;
70369;SDS011;57790;51.356;-2.906;2022-12-07T05:21:51;13.30;;;5.80;;
70369;SDS011;57790;51.356;-2.906;2022-12-07T05:24:52;16.57;;;6.43;;
70369;SDS011;57790;51.356;-2.906;2022-12-07T05:27:53;12.87;;;5.83;;
70369;SDS011;57790;51.356;-2.906;2022-12-07T05:30:55;14.50;;;6.00;;
70369;SDS011;57790;51.356;-2.906;2022-12-07T05:33:55;13.47;;;5.80;;
70369;SDS011;57790;51.356;-2.906;2022-12-07T05:36:55;12.60;;;5.20;;
70369;SDS011;57790;51.356;-2.906;2022-12-07T05:39:56;12.68;;;5.65;;
70369;SDS011;57790;51.356;-2.906;2022-12-07T05:42:56;15.43;;;5.70;;
70369;SDS011;57790;51.356;-2.906;2022-12-07T05:45:56;16.00;;;5.43;;
70369;SDS011;57790;51.356;-2.906;2022-12-07T05:48:57;13.40;;;5.90;;
70369;SDS011;57790;51.356;-2.906;2022-12-07T05:51:58;14.98;;;5.30;;
70369;SDS011;57790;51.356;-2.906;2022-12-07T05:54:59;15.50;;;5.70;;
70369;SDS011;57790;51.356;-2.906;2022-12-07T05:57:59;14.25;;;5.75;;
70369;SDS011;57790;51.356;-2.906;2022-12-07T06:01:18;14.53;;;5.70;;
70369;SDS011;57790;51.356;-2.906;2022-12-07T06:04:19;16.13;;;5.63;;
70369;SDS011;57790;51.356;-2.906;2022-12-07T06:07:20;13.85;;;6.10;;
70369;SDS011;57790;51.356;-2.906;2022-12-07T06:10:21;14.68;;;5.93;;
70369;SDS011;57790;51.356;-2.906;2022-12-07T06:13:21;15.73;;;5.67;;
70369;SDS011;57790;51.356;-2.906;2022-12-07T06:16:21;12.13;;;5.43;;
70369;SDS011;57790;51.356;-2.906;2022-12-07T06:19:22;14.07;;;5.63;;
70369;SDS011;57790;51.356;-2.906;2022-12-07T06:22:22;15.40;;;7.07;;
70369;SDS011;57790;51.356;-2.906;2022-12-07T06:25:23;15.13;;;6.20;;
70369;SDS011;57790;51.356;-2.906;2022-12-07T06:28:23;15.63;;;6.10;;
70369;SDS011;57790;51.356;-2.906;2022-12-07T06:31:23;17.50;;;6.53;;
70369;SDS011;57790;51.356;-2.906;2022-12-07T06:34:24;15.03;;;6.33;;
70369;SDS011;57790;51.356;-2.906;2022-12-07T06:37:25;15.52;;;5.93;;
70369;SDS011;57790;51.356;-2.906;2022-12-07T06:40:25;17.90;;;6.13;;
70369;SDS011;57790;51.356;-2.906;2022-12-07T06:43:26;14.33;;;5.67;;
70369;SDS011;57790;51.356;-2.906;2022-12-07T06:46:27;15.35;;;6.40;;
70369;SDS011;57790;51.356;-2.906;2022-12-07T06:49:27;15.40;;;6.10;;
70369;SDS011;57790;51.356;-2.906;2022-12-07T06:52:28;15.17;;;5.90;;
70369;SDS011;57790;51.356;-2.906;2022-12-07T06:55:28;15.97;;;6.03;;
70369;SDS011;57790;51.356;-2.906;2022-12-07T06:58:28;15.90;;;6.23;;
70369;SDS011;57790;51.356;-2.906;2022-12-07T07:01:29;13.90;;;6.60;;
70369;SDS011;57790;51.356;-2.906;2022-12-07T07:04:29;14.57;;;6.73;;
70369;SDS011;57790;51.356;-2.906;2022-12-07T07:07:30;14.90;;;6.30;;
70369;SDS011;57790;51.356;-2.906;2022-12-07T07:10:30;15.03;;;6.33;;
70369;SDS011;57790;51.356;-2.906;2022-12-07T07:13:30;21.87;;;10.17;;
70369;SDS011;57790;51.356;-2.906;2022-12-07T07:16:31;17.75;;;7.57;;
70369;SDS011;57790;51.356;-2.906;2022-12-07T07:19:31;27.13;;;11.67;;
70369;SDS011;57790;51.356;-2.906;2022-12-07T07:22:32;14.00;;;6.10;;
70369;SDS011;57790;51.356;-2.906;2022-12-07T07:25:32;16.70;;;6.27;;
70369;SDS011;57790;51.356;-2.906;2022-12-07T07:28:33;15.75;;;6.18;;
70369;SDS011;57790;51.356;-2.906;2022-12-07T07:31:33;14.70;;;5.87;;
70369;SDS011;57790;51.356;-2.906;2022-12-07T07:34:35;15.07;;;5.88;;
70369;SDS011;57790;51.356;-2.906;2022-12-07T07:37:35;13.90;;;5.83;;
70369;SDS011;57790;51.356;-2.906;2022-12-07T07:40:36;13.93;;;6.40;;
70369;SDS011;57790;51.356;-2.906;2022-12-07T07:43:36;14.60;;;6.50;;
70369;SDS011;57790;51.356;-2.906;2022-12-07T07:46:37;16.17;;;6.43;;
70369;SDS011;57790;51.356;-2.906;2022-12-07T07:49:37;15.57;;;5.93;;
70369;SDS011;57790;51.356;-2.906;2022-12-07T07:52:37;12.50;;;5.47;;
70369;SDS011;57790;51.356;-2.906;2022-12-07T07:55:40;13.02;;;6.15;;
70369;SDS011;57790;51.356;-2.906;2022-12-07T07:58:40;14.77;;;6.50;;
70369;SDS011;57790;51.356;-2.906;2022-12-07T08:01:40;13.83;;;6.00;;
70369;SDS011;57790;51.356;-2.906;2022-12-07T08:04:41;14.07;;;6.80;;
70369;SDS011;57790;51.356;-2.906;2022-12-07T08:07:41;14.43;;;6.20;;
70369;SDS011;57790;51.356;-2.906;2022-12-07T08:10:42;13.00;;;5.77;;
70369;SDS011;57790;51.356;-2.906;2022-12-07T08:13:44;18.20;;;6.75;;
70369;SDS011;57790;51.356;-2.906;2022-12-07T08:16:46;15.38;;;6.30;;
70369;SDS011;57790;51.356;-2.906;2022-12-07T08:19:47;14.70;;;6.00;;
70369;SDS011;57790;51.356;-2.906;2022-12-07T08:22:47;13.90;;;6.87;;
70369;SDS011;57790;51.356;-2.906;2022-12-07T08:25:47;14.87;;;6.30;;
70369;SDS011;57790;51.356;-2.906;2022-12-07T08:28:48;14.97;;;6.30;;
70369;SDS011;57790;51.356;-2.906;2022-12-07T08:31:48;16.67;;;6.70;;
70369;SDS011;57790;51.356;-2.906;2022-12-07T08:34:49;15.73;;;6.87;;
70369;SDS011;57790;51.356;-2.906;2022-12-07T08:37:49;18.73;;;7.00;;
70369;SDS011;57790;51.356;-2.906;2022-12-07T08:40:53;17.60;;;7.28;;
70369;SDS011;57790;51.356;-2.906;2022-12-07T08:43:56;18.80;;;7.33;;
70369;SDS011;57790;51.356;-2.906;2022-12-07T08:46:58;17.30;;;7.07;;
70369;SDS011;57790;51.356;-2.906;2022-12-07T08:50:02;16.80;;;7.30;;
70369;SDS011;57790;51.356;-2.906;2022-12-07T08:53:05;18.02;;;7.20;;
70369;SDS011;57790;51.356;-2.906;2022-12-07T08:56:06;14.65;;;6.32;;
70369;SDS011;57790;51.356;-2.906;2022-12-07T08:59:07;15.23;;;6.80;;
70369;SDS011;57790;51.356;-2.906;2022-12-07T09:02:08;15.95;;;7.10;;
70369;SDS011;57790;51.356;-2.906;2022-12-07T09:05:08;17.63;;;6.83;;
70369;SDS011;57790;51.356;-2.906;2022-12-07T09:08:09;17.17;;;6.95;;
70369;SDS011;57790;51.356;-2.906;2022-12-07T09:11:10;18.63;;;7.83;;
70369;SDS011;57790;51.356;-2.906;2022-12-07T09:14:10;17.47;;;7.80;;
70369;SDS011;57790;51.356;-2.906;2022-12-07T09:17:12;15.75;;;6.70;;
70369;SDS011;57790;51.356;-2.906;2022-12-07T09:20:13;19.08;;;7.43;;
70369;SDS011;57790;51.356;-2.906;2022-12-07T09:23:16;15.50;;;6.40;;
70369;SDS011;57790;51.356;-2.906;2022-12-07T09:26:16;18.42;;;7.05;;
70369;SDS011;57790;51.356;-2.906;2022-12-07T09:29:17;18.97;;;6.47;;
70369;SDS011;57790;51.356;-2.906;2022-12-07T09:32:17;15.00;;;5.90;;
70369;SDS011;57790;51.356;-2.906;2022-12-07T09:35:17;11.80;;;5.20;;
70369;SDS011;57790;51.356;-2.906;2022-12-07T09:38:18;12.90;;;5.43;;
70369;SDS011;57790;51.356;-2.906;2022-12-07T09:41:19;15.02;;;6.20;;
70369;SDS011;57790;51.356;-2.906;2022-12-07T09:44:23;15.45;;;6.35;;
70369;SDS011;57790;51.356;-2.906;2022-12-07T09:47:25;14.98;;;6.63;;
70369;SDS011;57790;51.356;-2.906;2022-12-07T09:50:27;15.97;;;6.93;;
70369;SDS011;57790;51.356;-2.906;2022-12-07T09:53:34;15.67;;;6.93;;
70369;SDS011;57790;51.356;-2.906;2022-12-07T09:56:38;13.52;;;6.20;;
70369;SDS011;57790;51.356;-2.906;2022-12-07T09:59:38;13.53;;;6.60;;
70369;SDS011;57790;51.356;-2.906;2022-12-07T10:02:41;15.63;;;6.60;;
70369;SDS011;57790;51.356;-2.906;2022-12-07T10:05:46;16.05;;;7.65;;
70369;SDS011;57790;51.356;-2.906;2022-12-07T10:08:49;15.68;;;6.93;;
70369;SDS011;57790;51.356;-2.906;2022-12-07T10:12:09;14.93;;;7.20;;
70369;SDS011;57790;51.356;-2.906;2022-12-07T10:15:11;18.15;;;6.85;;
70369;SDS011;57790;51.356;-2.906;2022-12-07T10:21:41;17.37;;;6.40;;
70369;SDS011;57790;51.356;-2.906;2022-12-07T10:25:19;19.50;;;7.07;;
70369;SDS011;57790;51.356;-2.906;2022-12-07T10:28:21;18.13;;;7.40;;
70369;SDS011;57790;51.356;-2.906;2022-12-07T10:31:22;14.10;;;6.95;;
70369;SDS011;57790;51.356;-2.906;2022-12-07T10:34:25;15.95;;;7.20;;
70369;SDS011;57790;51.356;-2.906;2022-12-07T10:37:30;15.53;;;7.47;;
70369;SDS011;57790;51.356;-2.906;2022-12-07T10:40:41;15.13;;;6.63;;
70369;SDS011;57790;51.356;-2.906;2022-12-07T10:43:48;14.53;;;6.77;;
70369;SDS011;57790;51.356;-2.906;2022-12-07T10:50:37;14.88;;;7.03;;
70369;SDS011;57790;51.356;-2.906;2022-12-07T10:53:51;15.88;;;6.55;;
70369;SDS011;57790;51.356;-2.906;2022-12-07T11:00:16;14.03;;;6.07;;
70369;SDS011;57790;51.356;-2.906;2022-12-07T11:03:23;15.55;;;6.05;;
70369;SDS011;57790;51.356;-2.906;2022-12-07T11:06:31;13.30;;;6.45;;
70369;SDS011;57790;51.356;-2.906;2022-12-07T11:13:05;15.10;;;7.15;;
70369;SDS011;57790;51.356;-2.906;2022-12-07T11:42:29;16.40;;;6.50;;
70369;SDS011;57790;51.356;-2.906;2022-12-07T11:45:37;14.93;;;6.03;;
70369;SDS011;57790;51.356;-2.906;2022-12-07T11:48:54;12.17;;;5.60;;
70369;SDS011;57790;51.356;-2.906;2022-12-07T11:52:02;14.13;;;5.30;;
70369;SDS011;57790;51.356;-2.906;2022-12-07T11:55:06;13.95;;;5.70;;
70369;SDS011;57790;51.356;-2.906;2022-12-07T12:07:48;13.00;;;3.70;;
70369;SDS011;57790;51.356;-2.906;2022-12-07T12:21:14;12.13;;;3.50;;
70369;SDS011;57790;51.356;-2.906;2022-12-07T12:24:18;11.17;;;3.43;;
70369;SDS011;57790;51.356;-2.906;2022-12-07T12:30:37;10.90;;;3.65;;
70369;SDS011;57790;51.356;-2.906;2022-12-07T12:33:52;12.52;;;3.88;;
70369;SDS011;57790;51.356;-2.906;2022-12-07T12:36:55;11.90;;;3.65;;
70369;SDS011;57790;51.356;-2.906;2022-12-07T12:43:43;10.13;;;2.95;;
70369;SDS011;57790;51.356;-2.906;2022-12-07T12:46:58;9.73;;;2.97;;
70369;SDS011;57790;51.356;-2.906;2022-12-07T12:53:34;11.07;;;2.63;;
70369;SDS011;57790;51.356;-2.906;2022-12-07T12:56:40;12.17;;;3.03;;
70369;SDS011;57790;51.356;-2.906;2022-12-07T13:03:28;8.20;;;2.50;;
70369;SDS011;57790;51.356;-2.906;2022-12-07T13:06:32;10.43;;;3.05;;
70369;SDS011;57790;51.356;-2.906;2022-12-07T13:09:36;11.73;;;2.70;;
70369;SDS011;57790;51.356;-2.906;2022-12-07T13:12:42;11.37;;;2.47;;
70369;SDS011;57790;51.356;-2.906;2022-12-07T13:18:47;10.90;;;2.63;;
70369;SDS011;57790;51.356;-2.906;2022-12-07T13:21:48;8.85;;;2.33;;
70369;SDS011;57790;51.356;-2.906;2022-12-07T13:24:48;10.53;;;2.50;;
70369;SDS011;57790;51.356;-2.906;2022-12-07T13:27:55;8.17;;;2.20;;
70369;SDS011;57790;51.356;-2.906;2022-12-07T13:37:30;8.27;;;1.90;;
70369;SDS011;57790;51.356;-2.906;2022-12-07T13:40:32;12.50;;;2.17;;
70369;SDS011;57790;51.356;-2.906;2022-12-07T13:43:41;14.37;;;2.47;;
70369;SDS011;57790;51.356;-2.906;2022-12-07T13:49:56;13.70;;;2.30;;
70369;SDS011;57790;51.356;-2.906;2022-12-07T13:53:01;9.23;;;2.17;;
70369;SDS011;57790;51.356;-2.906;2022-12-07T13:56:12;9.07;;;2.08;;
70369;SDS011;57790;51.356;-2.906;2022-12-07T13:59:21;9.97;;;1.87;;
70369;SDS011;57790;51.356;-2.906;2022-12-07T14:05:27;10.40;;;2.28;;
70369;SDS011;57790;51.356;-2.906;2022-12-07T14:08:29;13.23;;;1.70;;
70369;SDS011;57790;51.356;-2.906;2022-12-07T14:11:30;9.68;;;2.00;;
70369;SDS011;57790;51.356;-2.906;2022-12-07T14:14:31;9.03;;;2.07;;
70369;SDS011;57790;51.356;-2.906;2022-12-07T14:17:32;9.70;;;1.90;;
70369;SDS011;57790;51.356;-2.906;2022-12-07T14:20:39;7.47;;;1.80;;
70369;SDS011;57790;51.356;-2.906;2022-12-07T14:23:40;9.48;;;1.75;;
70369;SDS011;57790;51.356;-2.906;2022-12-07T14:26:41;9.33;;;2.00;;
70369;SDS011;57790;51.356;-2.906;2022-12-07T14:29:42;9.37;;;1.93;;
70369;SDS011;57790;51.356;-2.906;2022-12-07T14:32:43;9.13;;;1.70;;
70369;SDS011;57790;51.356;-2.906;2022-12-07T14:35:48;9.63;;;1.90;;
70369;SDS011;57790;51.356;-2.906;2022-12-07T14:38:49;10.07;;;1.90;;
70369;SDS011;57790;51.356;-2.906;2022-12-07T14:41:49;10.27;;;2.13;;
70369;SDS011;57790;51.356;-2.906;2022-12-07T14:44:53;9.18;;;2.30;;
70369;SDS011;57790;51.356;-2.906;2022-12-07T14:47:53;12.80;;;2.10;;
70369;SDS011;57790;51.356;-2.906;2022-12-07T14:50:53;13.13;;;2.57;;
70369;SDS011;57790;51.356;-2.906;2022-12-07T14:53:54;10.80;;;2.03;;
70369;SDS011;57790;51.356;-2.906;2022-12-07T14:56:55;8.93;;;2.20;;
70369;SDS011;57790;51.356;-2.906;2022-12-07T14:59:55;9.03;;;1.83;;
70369;SDS011;57790;51.356;-2.906;2022-12-07T15:02:56;9.93;;;1.77;;
70369;SDS011;57790;51.356;-2.906;2022-12-07T15:05:57;7.40;;;1.47;;
70369;SDS011;57790;51.356;-2.906;2022-12-07T15:08:58;9.57;;;2.13;;
70369;SDS011;57790;51.356;-2.906;2022-12-07T15:11:58;10.30;;;1.83;;
70369;SDS011;57790;51.356;-2.906;2022-12-07T15:15:01;10.33;;;2.00;;
70369;SDS011;57790;51.356;-2.906;2022-12-07T15:18:01;11.15;;;2.05;;
70369;SDS011;57790;51.356;-2.906;2022-12-07T15:21:02;9.87;;;1.73;;
70369;SDS011;57790;51.356;-2.906;2022-12-07T15:24:05;8.48;;;1.90;;
70369;SDS011;57790;51.356;-2.906;2022-12-07T15:27:06;10.83;;;1.50;;
70369;SDS011;57790;51.356;-2.906;2022-12-07T15:30:06;9.70;;;1.60;;
70369;SDS011;57790;51.356;-2.906;2022-12-07T15:33:07;16.03;;;2.60;;
70369;SDS011;57790;51.356;-2.906;2022-12-07T15:36:07;8.20;;;1.60;;
70369;SDS011;57790;51.356;-2.906;2022-12-07T15:39:12;10.45;;;2.13;;
70369;SDS011;57790;51.356;-2.906;2022-12-07T15:42:13;10.83;;;2.27;;
70369;SDS011;57790;51.356;-2.906;2022-12-07T15:45:13;9.95;;;1.90;;
70369;SDS011;57790;51.356;-2.906;2022-12-07T15:48:13;9.70;;;2.20;;
70369;SDS011;57790;51.356;-2.906;2022-12-07T15:51:14;10.60;;;2.20;;
70369;SDS011;57790;51.356;-2.906;2022-12-07T15:54:21;9.13;;;2.00;;
70369;SDS011;57790;51.356;-2.906;2022-12-07T15:57:24;10.52;;;2.35;;
70369;SDS011;57790;51.356;-2.906;2022-12-07T16:00:24;10.67;;;2.20;;
70369;SDS011;57790;51.356;-2.906;2022-12-07T16:03:26;7.07;;;1.80;;
70369;SDS011;57790;51.356;-2.906;2022-12-07T16:06:29;10.52;;;2.95;;
70369;SDS011;57790;51.356;-2.906;2022-12-07T16:09:30;12.60;;;2.37;;
70369;SDS011;57790;51.356;-2.906;2022-12-07T16:12:30;8.75;;;1.75;;
70369;SDS011;57790;51.356;-2.906;2022-12-07T16:15:31;7.43;;;2.00;;
70369;SDS011;57790;51.356;-2.906;2022-12-07T16:18:32;10.98;;;2.15;;
70369;SDS011;57790;51.356;-2.906;2022-12-07T16:21:38;11.60;;;2.37;;
70369;SDS011;57790;51.356;-2.906;2022-12-07T16:24:38;13.27;;;2.63;;
70369;SDS011;57790;51.356;-2.906;2022-12-07T16:27:39;8.47;;;2.40;;
70369;SDS011;57790;51.356;-2.906;2022-12-07T16:30:39;14.67;;;4.20;;
70369;SDS011;57790;51.356;-2.906;2022-12-07T16:33:41;11.85;;;3.92;;
70369;SDS011;57790;51.356;-2.906;2022-12-07T16:36:42;18.55;;;6.78;;
70369;SDS011;57790;51.356;-2.906;2022-12-07T16:39:43;15.87;;;6.40;;
70369;SDS011;57790;51.356;-2.906;2022-12-07T16:42:43;18.47;;;5.23;;
70369;SDS011;57790;51.356;-2.906;2022-12-07T16:45:45;15.73;;;5.90;;
70369;SDS011;57790;51.356;-2.906;2022-12-07T16:48:46;13.70;;;3.92;;
70369;SDS011;57790;51.356;-2.906;2022-12-07T16:51:49;14.97;;;4.60;;
70369;SDS011;57790;51.356;-2.906;2022-12-07T16:54:50;13.60;;;4.57;;
70369;SDS011;57790;51.356;-2.906;2022-12-07T16:57:51;14.10;;;4.73;;
70369;SDS011;57790;51.356;-2.906;2022-12-07T17:00:51;15.88;;;4.60;;
70369;SDS011;57790;51.356;-2.906;2022-12-07T17:03:52;16.57;;;5.00;;
70369;SDS011;57790;51.356;-2.906;2022-12-07T17:06:52;16.83;;;5.60;;
70369;SDS011;57790;51.356;-2.906;2022-12-07T17:09:52;20.13;;;5.53;;
70369;SDS011;57790;51.356;-2.906;2022-12-07T17:12:53;19.38;;;5.75;;
70369;SDS011;57790;51.356;-2.906;2022-12-07T17:15:58;22.17;;;5.87;;
70369;SDS011;57790;51.356;-2.906;2022-12-07T17:19:03;17.92;;;5.50;;
70369;SDS011;57790;51.356;-2.906;2022-12-07T17:22:16;16.83;;;5.38;;
70369;SDS011;57790;51.356;-2.906;2022-12-07T17:25:16;19.23;;;5.47;;
70369;SDS011;57790;51.356;-2.906;2022-12-07T17:28:17;16.38;;;5.95;;
70369;SDS011;57790;51.356;-2.906;2022-12-07T17:31:19;21.77;;;6.03;;
70369;SDS011;57790;51.356;-2.906;2022-12-07T17:34:20;19.38;;;6.45;;
70369;SDS011;57790;51.356;-2.906;2022-12-07T17:37:21;20.47;;;6.77;;
70369;SDS011;57790;51.356;-2.906;2022-12-07T17:40:21;18.73;;;6.93;;
70369;SDS011;57790;51.356;-2.906;2022-12-07T17:43:22;22.30;;;7.00;;
70369;SDS011;57790;51.356;-2.906;2022-12-07T17:46:22;24.73;;;7.28;;
70369;SDS011;57790;51.356;-2.906;2022-12-07T17:49:23;24.60;;;8.53;;
70369;SDS011;57790;51.356;-2.906;2022-12-07T17:52:23;26.03;;;9.70;;
70369;SDS011;57790;51.356;-2.906;2022-12-07T17:55:42;27.17;;;8.83;;
70369;SDS011;57790;51.356;-2.906;2022-12-07T17:58:43;23.10;;;9.40;;
70369;SDS011;57790;51.356;-2.906;2022-12-07T18:01:43;28.40;;;8.73;;
70369;SDS011;57790;51.356;-2.906;2022-12-07T18:04:44;22.60;;;8.77;;
70369;SDS011;57790;51.356;-2.906;2022-12-07T18:07:46;20.40;;;7.93;;
70369;SDS011;57790;51.356;-2.906;2022-12-07T18:10:46;20.80;;;7.87;;
70369;SDS011;57790;51.356;-2.906;2022-12-07T18:13:47;19.48;;;6.88;;
70369;SDS011;57790;51.356;-2.906;2022-12-07T18:16:48;22.30;;;8.10;;
70369;SDS011;57790;51.356;-2.906;2022-12-07T18:19:51;22.98;;;7.30;;
70369;SDS011;57790;51.356;-2.906;2022-12-07T18:22:51;19.90;;;7.60;;
70369;SDS011;57790;51.356;-2.906;2022-12-07T18:25:52;19.90;;;7.40;;
70369;SDS011;57790;51.356;-2.906;2022-12-07T18:28:53;19.83;;;7.90;;
70369;SDS011;57790;51.356;-2.906;2022-12-07T18:31:54;17.87;;;7.17;;
70369;SDS011;57790;51.356;-2.906;2022-12-07T18:34:54;18.85;;;7.80;;
70369;SDS011;57790;51.356;-2.906;2022-12-07T18:37:54;22.83;;;7.67;;
70369;SDS011;57790;51.356;-2.906;2022-12-07T18:40:55;16.30;;;6.80;;
70369;SDS011;57790;51.356;-2.906;2022-12-07T18:43:55;18.10;;;6.20;;
70369;SDS011;57790;51.356;-2.906;2022-12-07T18:46:56;20.27;;;6.97;;
70369;SDS011;57790;51.356;-2.906;2022-12-07T18:49:59;20.03;;;7.13;;
70369;SDS011;57790;51.356;-2.906;2022-12-07T18:53:00;17.80;;;7.33;;
70369;SDS011;57790;51.356;-2.906;2022-12-07T18:56:07;24.08;;;8.80;;
70369;SDS011;57790;51.356;-2.906;2022-12-07T18:59:12;22.08;;;7.85;;
70369;SDS011;57790;51.356;-2.906;2022-12-07T19:02:39;19.80;;;8.20;;
70369;SDS011;57790;51.356;-2.906;2022-12-07T19:05:39;19.37;;;8.23;;
70369;SDS011;57790;51.356;-2.906;2022-12-07T19:08:40;24.00;;;8.43;;
70369;SDS011;57790;51.356;-2.906;2022-12-07T19:11:40;21.57;;;8.10;;
70369;SDS011;57790;51.356;-2.906;2022-12-07T19:14:50;17.55;;;8.00;;
70369;SDS011;57790;51.356;-2.906;2022-12-07T19:17:50;20.63;;;8.13;;
70369;SDS011;57790;51.356;-2.906;2022-12-07T19:20:51;19.50;;;8.50;;
70369;SDS011;57790;51.356;-2.906;2022-12-07T19:23:52;17.93;;;7.87;;
70369;SDS011;57790;51.356;-2.906;2022-12-07T19:26:52;19.50;;;8.13;;
70369;SDS011;57790;51.356;-2.906;2022-12-07T19:29:53;20.77;;;8.70;;
70369;SDS011;57790;51.356;-2.906;2022-12-07T19:32:53;20.20;;;8.60;;
70369;SDS011;57790;51.356;-2.906;2022-12-07T19:35:53;24.00;;;11.17;;
70369;SDS011;57790;51.356;-2.906;2022-12-07T19:38:54;13.17;;;4.80;;
70369;SDS011;57790;51.356;-2.906;2022-12-07T19:41:54;19.47;;;8.90;;
70369;SDS011;57790;51.356;-2.906;2022-12-07T19:44:55;30.50;;;12.23;;
70369;SDS011;57790;51.356;-2.906;2022-12-07T19:47:56;25.37;;;11.37;;
70369;SDS011;57790;51.356;-2.906;2022-12-07T19:51:03;28.27;;;11.67;;
70369;SDS011;57790;51.356;-2.906;2022-12-07T19:54:04;22.23;;;10.52;;
70369;SDS011;57790;51.356;-2.906;2022-12-07T19:57:05;23.00;;;10.90;;